createdAt,value
2023-02-26T00:00:50.179Z,3.78
2023-02-26T00:05:15.490Z,5.95
2023-02-26T00:07:23.007Z,3.80
2023-02-26T00:09:24.816Z,3.70
2023-02-26T00:11:32.842Z,3.30
2023-02-26T00:13:37.989Z,2.67
2023-02-26T00:15:39.622Z,4.65
2023-02-26T00:17:43.915Z,3.35
2023-02-26T00:20:05.891Z,3.42
2023-02-26T00:22:10.455Z,3.45
2023-02-26T00:24:12.121Z,3.95
2023-02-26T00:26:13.656Z,3.33
2023-02-26T00:28:15.278Z,3.25
2023-02-26T00:30:19.847Z,3.00
2023-02-26T00:32:21.714Z,4.82
2023-02-26T00:34:26.225Z,3.45
2023-02-26T00:36:28.012Z,4.53
2023-02-26T00:38:34.062Z,3.45
2023-02-26T00:40:36.077Z,2.53
2023-02-26T00:42:37.840Z,3.22
2023-02-26T00:44:48.686Z,4.15
2023-02-26T00:46:55.358Z,3.22
2023-02-26T00:49:14.777Z,2.78
2023-02-26T00:51:18.853Z,3.03
2023-02-26T00:53:53.069Z,2.85
2023-02-26T00:55:54.644Z,3.40
2023-02-26T00:57:56.184Z,3.03
2023-02-26T01:00:00.618Z,3.53
2023-02-26T01:04:09.167Z,3.28
2023-02-26T01:06:13.247Z,3.80
2023-02-26T01:08:24.371Z,3.65
2023-02-26T01:10:29.029Z,3.38
2023-02-26T01:12:36.345Z,4.05
2023-02-26T01:14:37.989Z,4.25
2023-02-26T01:16:44.489Z,3.95
2023-02-26T01:18:53.161Z,4.28
2023-02-26T01:21:00.963Z,4.18
2023-02-26T01:23:09.258Z,3.05
2023-02-26T01:25:20.653Z,3.55
2023-02-26T01:27:22.227Z,4.53
2023-02-26T01:29:42.213Z,4.18
2023-02-26T01:32:08.791Z,4.05
2023-02-26T01:34:19.412Z,3.42
2023-02-26T01:36:24.143Z,5.57
2023-02-26T01:38:49.750Z,5.05
2023-02-26T01:41:11.717Z,2.90
2023-02-26T01:43:31.032Z,4.53
2023-02-26T01:45:57.172Z,5.63
2023-02-26T01:48:14.036Z,4.63
2023-02-26T01:50:25.479Z,3.13
2023-02-26T01:52:41.640Z,3.78
2023-02-26T01:54:55.407Z,2.85
2023-02-26T01:57:17.860Z,4.78
2023-02-26T01:59:31.351Z,4.63
2023-02-26T02:01:46.236Z,3.25
2023-02-26T02:03:57.457Z,3.38
2023-02-26T02:06:15.770Z,3.50
2023-02-26T02:08:25.319Z,4.32
2023-02-26T02:10:38.696Z,2.92
2023-02-26T02:13:08.003Z,4.05
2023-02-26T02:15:16.981Z,3.15
2023-02-26T02:17:18.500Z,3.13
2023-02-26T02:19:53.423Z,3.35
2023-02-26T02:22:04.333Z,5.15
2023-02-26T02:24:51.003Z,3.33
2023-02-26T02:27:20.311Z,3.28
2023-02-26T02:29:33.192Z,3.15
2023-02-26T02:31:43.803Z,3.65
2023-02-26T02:34:00.184Z,3.78
2023-02-26T02:36:05.178Z,2.80
2023-02-26T02:38:12.013Z,3.90
2023-02-26T02:40:35.008Z,3.85
2023-02-26T02:43:03.643Z,2.95
2023-02-26T02:45:27.290Z,3.28
2023-02-26T02:47:30.892Z,3.33
2023-02-26T02:49:43.829Z,2.85
2023-02-26T02:51:52.410Z,4.35
2023-02-26T02:54:03.124Z,3.88
2023-02-26T02:56:28.631Z,3.00
2023-02-26T02:58:43.711Z,3.00
2023-02-26T03:00:53.542Z,3.47
2023-02-26T03:02:58.193Z,3.03
2023-02-26T03:05:02.687Z,3.20
2023-02-26T03:07:04.265Z,3.47
2023-02-26T03:09:06.898Z,4.78
2023-02-26T03:11:08.882Z,3.03
2023-02-26T03:13:21.404Z,3.15
2023-02-26T03:15:46.335Z,2.92
2023-02-26T03:17:51.232Z,3.30
2023-02-26T03:19:55.618Z,3.15
2023-02-26T03:21:59.998Z,3.38
2023-02-26T03:24:01.468Z,3.72
2023-02-26T03:26:10.584Z,4.30
2023-02-26T03:28:18.941Z,3.80
2023-02-26T03:30:26.593Z,3.55
2023-02-26T03:32:35.441Z,3.60
2023-02-26T03:34:59.645Z,3.50
2023-02-26T03:37:06.787Z,3.45
2023-02-26T03:39:13.739Z,3.10
2023-02-26T03:41:22.721Z,4.15
2023-02-26T03:43:40.594Z,2.60
2023-02-26T03:46:03.645Z,3.25
2023-02-26T03:48:16.149Z,4.28
2023-02-26T03:50:19.128Z,3.33
2023-02-26T03:52:25.717Z,3.60
2023-02-26T03:54:32.988Z,3.97
2023-02-26T03:56:44.995Z,3.30
2023-02-26T03:58:46.732Z,3.22
2023-02-26T04:01:04.731Z,3.72
2023-02-26T04:03:11.757Z,2.45
2023-02-26T04:05:25.047Z,2.72
2023-02-26T04:07:46.438Z,3.15
2023-02-26T04:09:49.328Z,2.78
2023-02-26T04:11:54.244Z,2.83
2023-02-26T04:14:14.506Z,3.03
2023-02-26T04:16:22.604Z,2.88
2023-02-26T04:18:27.415Z,2.45
2023-02-26T04:20:28.942Z,2.47
2023-02-26T04:22:49.595Z,3.80
2023-02-26T04:24:54.090Z,3.65
2023-02-26T04:26:56.368Z,2.97
2023-02-26T04:29:16.567Z,2.85
2023-02-26T04:33:26.841Z,4.25
2023-02-26T04:35:34.256Z,4.38
2023-02-26T04:37:35.894Z,2.65
2023-02-26T04:39:40.197Z,2.85
2023-02-26T04:42:00.179Z,3.05
2023-02-26T04:44:05.058Z,3.20
2023-02-26T04:46:27.757Z,3.58
2023-02-26T04:48:32.213Z,4.07
2023-02-26T04:50:35.746Z,3.80
2023-02-26T04:52:42.041Z,3.72
2023-02-26T04:54:51.960Z,3.58
2023-02-26T04:56:54.899Z,2.83
2023-02-26T04:59:01.530Z,3.47
2023-02-26T05:01:08.419Z,3.90
2023-02-26T05:03:14.393Z,4.82
2023-02-26T05:05:17.370Z,3.42
2023-02-26T05:07:24.336Z,3.80
2023-02-26T05:09:34.454Z,3.50
2023-02-26T05:11:55.558Z,3.30
2023-02-26T05:14:05.296Z,3.35
2023-02-26T05:16:10.476Z,4.03
2023-02-26T05:18:15.111Z,3.72
2023-02-26T05:20:35.340Z,3.97
2023-02-26T05:22:39.986Z,4.07
2023-02-26T05:24:41.697Z,3.85
2023-02-26T05:26:46.836Z,4.10
2023-02-26T05:28:49.259Z,4.82
2023-02-26T05:30:51.062Z,5.13
2023-02-26T05:32:58.621Z,3.90
2023-02-26T05:35:00.093Z,4.57
2023-02-26T05:37:20.430Z,3.92
2023-02-26T05:39:21.969Z,3.88
2023-02-26T05:41:23.406Z,3.38
2023-02-26T05:43:25.188Z,3.83
2023-02-26T05:45:45.219Z,4.60
2023-02-26T05:47:52.281Z,4.25
2023-02-26T05:49:53.724Z,4.85
2023-02-26T05:52:01.317Z,3.72
2023-02-26T05:54:06.186Z,3.97
2023-02-26T05:56:07.823Z,3.72
2023-02-26T05:58:09.300Z,3.53
2023-02-26T06:00:16.963Z,3.72
2023-02-26T06:02:18.542Z,6.10
2023-02-26T06:04:20.171Z,3.78
2023-02-26T06:06:21.833Z,4.35
2023-02-26T06:08:26.299Z,4.43
2023-02-26T06:10:27.821Z,3.80
2023-02-26T06:14:33.973Z,3.78
2023-02-26T06:16:41.698Z,3.97
2023-02-26T06:18:49.903Z,3.58
2023-02-26T06:21:10.135Z,5.78
2023-02-26T06:23:11.898Z,4.65
2023-02-26T06:25:13.510Z,4.50
2023-02-26T06:27:18.049Z,4.60
2023-02-26T06:31:23.683Z,4.35
2023-02-26T06:35:30.079Z,3.60
2023-02-26T06:37:31.628Z,4.78
2023-02-26T06:39:33.098Z,4.45
2023-02-26T06:43:41.760Z,4.03
2023-02-26T06:45:43.333Z,5.50
2023-02-26T06:47:47.626Z,4.88
2023-02-26T06:49:51.737Z,4.70
2023-02-26T06:51:59.174Z,3.95
2023-02-26T06:54:04.962Z,4.40
2023-02-26T06:56:09.358Z,4.97
2023-02-26T06:58:14.265Z,4.57
2023-02-26T07:00:15.966Z,5.55
2023-02-26T07:02:21.174Z,4.75
2023-02-26T07:04:23.047Z,4.18
2023-02-26T07:06:30.485Z,3.85
2023-02-26T07:08:32.051Z,5.68
2023-02-26T07:10:33.953Z,3.90
2023-02-26T07:12:38.454Z,4.28
2023-02-26T07:14:40.349Z,5.32
2023-02-26T07:16:45.146Z,5.60
2023-02-26T07:18:49.765Z,4.22
2023-02-26T07:20:51.396Z,5.10
2023-02-26T07:24:57.001Z,4.93
2023-02-26T07:26:58.525Z,4.20
2023-02-26T07:29:02.940Z,4.13
2023-02-26T07:31:04.623Z,4.28
2023-02-26T07:33:09.409Z,4.80
2023-02-26T07:35:29.575Z,6.30
2023-02-26T07:37:34.432Z,4.80
2023-02-26T07:39:41.869Z,4.03
2023-02-26T07:41:43.347Z,5.10
2023-02-26T07:45:53.439Z,4.80
2023-02-26T07:47:57.237Z,4.63
2023-02-26T07:50:02.552Z,5.07
2023-02-26T07:52:04.412Z,4.63
2023-02-26T07:54:06.041Z,4.68
2023-02-26T07:56:10.530Z,5.55
2023-02-26T07:58:14.785Z,6.03
2023-02-26T08:00:19.685Z,6.35
2023-02-26T08:02:24.426Z,4.90
2023-02-26T08:04:33.074Z,4.38
2023-02-26T08:10:42.342Z,3.35
2023-02-26T08:12:44.098Z,3.53
2023-02-26T08:14:48.733Z,2.75
2023-02-26T08:16:50.504Z,3.60
2023-02-26T08:18:54.833Z,3.40
2023-02-26T08:20:56.827Z,2.50
2023-02-26T08:23:01.261Z,2.17
2023-02-26T08:25:03.009Z,2.20
2023-02-26T08:27:23.043Z,2.67
2023-02-26T08:31:28.662Z,2.05
2023-02-26T08:33:36.130Z,2.20
2023-02-26T08:35:40.740Z,2.33
2023-02-26T08:37:45.147Z,3.17
2023-02-26T08:40:06.480Z,1.88
2023-02-26T08:42:16.496Z,1.50
2023-02-26T08:46:26.065Z,1.08
2023-02-26T08:48:27.821Z,1.73
2023-02-26T08:50:29.477Z,1.52
2023-02-26T08:52:34.015Z,1.88
2023-02-26T08:56:42.845Z,2.03
2023-02-26T08:58:47.560Z,1.25
2023-02-26T09:00:49.380Z,1.10
2023-02-26T09:02:50.882Z,1.60
2023-02-26T09:06:59.308Z,1.55
2023-02-26T09:09:03.791Z,2.30
2023-02-26T09:11:05.868Z,1.30
2023-02-26T09:13:09.989Z,1.30
2023-02-26T09:15:11.853Z,1.10
2023-02-26T09:17:13.342Z,1.58
2023-02-26T09:19:14.858Z,1.52
2023-02-26T09:21:16.366Z,1.63
2023-02-26T09:23:18.080Z,1.90
2023-02-26T09:25:23.983Z,2.13
2023-02-26T09:27:25.826Z,1.58
2023-02-26T09:29:31.061Z,3.20
2023-02-26T09:31:51.317Z,1.70
2023-02-26T09:33:58.917Z,1.90
2023-02-26T09:36:09.266Z,1.27
2023-02-26T09:38:13.562Z,1.52
2023-02-26T09:40:21.217Z,3.55
2023-02-26T09:42:34.578Z,2.72
2023-02-26T09:44:37.677Z,2.00
2023-02-26T09:46:44.772Z,2.40
2023-02-26T09:48:49.986Z,1.45
2023-02-26T09:50:58.688Z,1.73
2023-02-26T09:53:02.844Z,2.55
2023-02-26T09:55:10.534Z,2.65
2023-02-26T09:57:41.000Z,2.13
2023-02-26T10:01:56.129Z,1.85
2023-02-26T10:03:57.666Z,1.60
2023-02-26T10:06:13.701Z,1.48
2023-02-26T10:08:18.774Z,1.55
2023-02-26T10:10:31.246Z,2.22
2023-02-26T10:16:53.776Z,2.22
2023-02-26T10:19:17.074Z,1.00
2023-02-26T10:21:57.805Z,1.70
2023-02-26T10:24:08.377Z,1.80
2023-02-26T10:26:26.988Z,1.63
2023-02-26T10:29:23.509Z,1.25
2023-02-26T10:31:33.330Z,1.13
2023-02-26T10:33:47.400Z,1.45
2023-02-26T10:35:59.344Z,1.40
2023-02-26T10:38:11.347Z,1.83
2023-02-26T10:40:19.247Z,1.27
2023-02-26T10:42:26.309Z,1.45
2023-02-26T10:44:50.907Z,1.92
2023-02-26T10:47:01.374Z,1.33
2023-02-26T10:49:17.423Z,1.30
2023-02-26T10:51:20.458Z,1.98
2023-02-26T10:53:36.419Z,1.48
2023-02-26T10:55:54.838Z,1.52
2023-02-26T10:58:15.466Z,1.23
2023-02-26T11:00:30.042Z,1.50
2023-02-26T11:02:47.634Z,1.35
2023-02-26T11:05:06.932Z,1.38
2023-02-26T11:07:18.764Z,1.30
2023-02-26T11:09:51.332Z,1.13
2023-02-26T11:12:10.466Z,1.48
2023-02-26T11:14:30.733Z,1.08
2023-02-26T11:16:35.958Z,2.75
2023-02-26T11:18:54.892Z,1.70
2023-02-26T11:21:07.401Z,1.48
2023-02-26T11:23:26.608Z,1.02
2023-02-26T11:25:40.416Z,1.75
2023-02-26T11:27:48.565Z,1.27
2023-02-26T11:29:56.263Z,1.65
2023-02-26T11:32:03.756Z,1.85
2023-02-26T11:34:24.732Z,1.50
2023-02-26T11:36:28.661Z,2.28
2023-02-26T11:38:53.730Z,1.08
2023-02-26T11:40:58.364Z,1.60
2023-02-26T11:43:03.865Z,1.30
2023-02-26T11:45:06.115Z,2.60
2023-02-26T11:47:21.301Z,0.98
2023-02-26T11:49:25.037Z,0.95
2023-02-26T11:51:30.001Z,0.95
2023-02-26T11:53:35.221Z,1.50
2023-02-26T11:55:44.625Z,1.50
2023-02-26T11:57:56.196Z,1.33
2023-02-26T11:59:59.093Z,0.90
2023-02-26T12:02:23.296Z,1.23
2023-02-26T12:04:27.976Z,1.15
2023-02-26T12:06:32.187Z,1.08
2023-02-26T12:08:40.780Z,0.85
2023-02-26T12:11:17.717Z,1.30
2023-02-26T12:13:22.248Z,1.02
2023-02-26T12:15:39.122Z,1.27
2023-02-26T12:18:11.316Z,0.88
2023-02-26T12:20:21.820Z,1.42
2023-02-26T12:22:38.804Z,1.02
2023-02-26T12:24:50.283Z,1.80
2023-02-26T12:26:51.876Z,2.17
2023-02-26T12:29:20.558Z,1.20
2023-02-26T12:31:39.889Z,1.38
2023-02-26T12:33:51.752Z,1.25
2023-02-26T12:35:53.188Z,1.13
2023-02-26T12:38:15.308Z,1.17
2023-02-26T12:42:27.486Z,1.08
2023-02-26T12:44:57.457Z,0.77
2023-02-26T12:47:23.927Z,0.70
2023-02-26T12:49:28.373Z,1.10
2023-02-26T12:51:35.665Z,0.95
2023-02-26T12:53:40.203Z,1.20
2023-02-26T12:55:47.621Z,1.42
2023-02-26T12:57:58.109Z,0.98
2023-02-26T13:00:14.666Z,1.38
2023-02-26T13:02:25.537Z,1.13
2023-02-26T13:04:56.511Z,0.90
2023-02-26T13:07:01.655Z,1.13
2023-02-26T13:09:22.105Z,0.88
2023-02-26T13:11:32.281Z,1.15
2023-02-26T13:13:54.382Z,1.08
2023-02-26T13:15:58.722Z,1.13
2023-02-26T13:18:20.492Z,1.15
2023-02-26T13:20:25.708Z,1.33
2023-02-26T13:22:29.308Z,1.08
2023-02-26T13:24:30.748Z,1.35
2023-02-26T13:26:36.494Z,1.10
2023-02-26T13:28:44.842Z,1.42
2023-02-26T13:30:50.224Z,1.05
2023-02-26T13:32:56.626Z,1.10
2023-02-26T13:35:00.443Z,0.77
2023-02-26T13:37:05.277Z,0.63
2023-02-26T13:39:25.980Z,0.70
2023-02-26T13:42:06.657Z,1.15
2023-02-26T13:44:21.426Z,1.30
2023-02-26T13:46:34.362Z,1.20
2023-02-26T13:49:02.716Z,1.23
2023-02-26T13:51:36.957Z,0.70
2023-02-26T13:53:59.660Z,1.63
2023-02-26T13:56:07.360Z,0.93
2023-02-26T13:58:26.300Z,1.08
2023-02-26T14:00:37.406Z,1.08
2023-02-26T14:02:50.283Z,0.90
2023-02-26T14:04:59.776Z,1.08
2023-02-26T14:07:15.109Z,1.08
2023-02-26T14:09:25.360Z,0.73
2023-02-26T14:11:55.691Z,0.45
2023-02-26T14:14:28.719Z,1.20
2023-02-26T14:16:36.765Z,0.60
2023-02-26T14:18:52.455Z,0.68
2023-02-26T14:21:17.858Z,0.90
2023-02-26T14:23:35.807Z,0.85
2023-02-26T14:25:44.530Z,0.95
2023-02-26T14:27:51.802Z,0.70
2023-02-26T14:29:59.464Z,0.82
2023-02-26T14:32:14.415Z,0.68
2023-02-26T14:34:27.173Z,0.80
2023-02-26T14:36:28.966Z,0.90
2023-02-26T14:38:38.281Z,0.90
2023-02-26T14:40:54.858Z,0.70
2023-02-26T14:43:00.864Z,0.95
2023-02-26T14:45:23.427Z,0.77
2023-02-26T14:47:44.608Z,0.70
2023-02-26T14:49:59.682Z,0.85
2023-02-26T14:52:19.561Z,0.55
2023-02-26T14:54:21.008Z,0.70
2023-02-26T14:58:42.544Z,1.08
2023-02-26T15:00:55.250Z,0.70
2023-02-26T15:03:08.893Z,0.45
2023-02-26T15:05:22.674Z,1.27
2023-02-26T15:07:33.552Z,0.82
2023-02-26T15:09:46.239Z,0.65
2023-02-26T15:11:50.660Z,0.57
2023-02-26T15:15:56.458Z,1.25
2023-02-26T15:18:12.653Z,0.63
2023-02-26T15:20:49.457Z,0.73
2023-02-26T15:23:08.977Z,0.75
2023-02-26T15:25:25.855Z,0.80
2023-02-26T15:27:31.818Z,0.50
2023-02-26T15:29:38.094Z,1.00
2023-02-26T15:31:44.587Z,0.93
2023-02-26T15:33:49.409Z,0.45
2023-02-26T15:35:56.025Z,0.90
2023-02-26T15:38:01.781Z,0.75
2023-02-26T15:40:06.728Z,0.43
2023-02-26T15:42:11.172Z,0.75
2023-02-26T15:44:22.485Z,0.98
2023-02-26T15:46:29.708Z,0.88
2023-02-26T15:48:34.071Z,1.10
2023-02-26T15:50:37.550Z,0.93
2023-02-26T15:52:42.249Z,0.57
2023-02-26T15:54:49.813Z,0.50
2023-02-26T15:56:51.609Z,0.50
2023-02-26T15:59:14.195Z,0.98
2023-02-26T16:01:23.020Z,0.80
2023-02-26T16:03:26.066Z,0.60
2023-02-26T16:05:29.634Z,2.65
2023-02-26T16:07:34.025Z,0.90
2023-02-26T16:09:36.400Z,0.75
2023-02-26T16:11:40.072Z,1.00
2023-02-26T16:13:43.632Z,0.68
2023-02-26T16:15:48.016Z,1.05
2023-02-26T16:17:56.368Z,1.08
2023-02-26T16:19:59.386Z,1.42
2023-02-26T16:22:07.256Z,0.88
2023-02-26T16:24:13.860Z,2.17
2023-02-26T16:26:18.179Z,0.88
2023-02-26T16:28:45.673Z,1.58
2023-02-26T16:30:49.279Z,1.20
2023-02-26T16:32:51.729Z,0.80
2023-02-26T16:34:54.526Z,0.95
2023-02-26T16:36:59.453Z,0.80
2023-02-26T16:39:03.077Z,0.98
2023-02-26T16:41:24.320Z,0.90
2023-02-26T16:43:41.004Z,1.00
2023-02-26T16:45:49.467Z,0.77
2023-02-26T16:47:58.289Z,1.58
2023-02-26T16:50:01.944Z,1.30
2023-02-26T16:52:24.330Z,1.27
2023-02-26T16:54:28.813Z,1.38
2023-02-26T16:56:40.904Z,1.23
2023-02-26T16:58:50.907Z,0.93
2023-02-26T17:01:17.155Z,1.27
2023-02-26T17:03:26.095Z,1.55
2023-02-26T17:05:43.776Z,2.38
2023-02-26T17:08:17.267Z,2.15
2023-02-26T17:10:36.684Z,1.75
2023-02-26T17:13:00.278Z,1.77
2023-02-26T17:15:15.583Z,1.02
2023-02-26T17:17:24.797Z,1.50
2023-02-26T17:19:43.284Z,1.48
2023-02-26T17:21:55.290Z,1.65
2023-02-26T17:23:59.823Z,1.35
2023-02-26T17:26:12.034Z,1.33
2023-02-26T17:28:26.006Z,1.83
2023-02-26T17:30:37.221Z,1.13
2023-02-26T17:32:49.198Z,1.60
2023-02-26T17:35:00.092Z,1.90
2023-02-26T17:37:11.745Z,1.85
2023-02-26T17:39:24.885Z,2.15
2023-02-26T17:41:32.600Z,2.30
2023-02-26T17:43:40.046Z,2.22
2023-02-26T17:45:44.797Z,1.98
2023-02-26T17:47:52.226Z,2.53
2023-02-26T17:49:54.151Z,2.90
2023-02-26T17:52:15.002Z,2.78
2023-02-26T17:54:16.444Z,4.18
2023-02-26T17:56:24.683Z,2.80
2023-02-26T17:58:29.131Z,3.33
2023-02-26T18:00:31.659Z,2.60
2023-02-26T18:02:39.465Z,3.08
2023-02-26T18:04:59.814Z,2.63
2023-02-26T18:07:01.440Z,3.05
2023-02-26T18:09:07.340Z,3.17
2023-02-26T18:11:11.852Z,3.28
2023-02-26T18:13:32.879Z,3.10
2023-02-26T18:15:37.677Z,3.38
2023-02-26T18:17:42.053Z,4.03
2023-02-26T18:20:02.152Z,3.10
2023-02-26T18:24:11.384Z,2.65
2023-02-26T18:26:15.066Z,2.88
2023-02-26T18:28:21.577Z,3.10
2023-02-26T18:30:27.837Z,2.88
2023-02-26T18:32:32.184Z,2.55
2023-02-26T18:34:36.880Z,2.38
2023-02-26T18:36:57.156Z,3.00
2023-02-26T18:39:02.502Z,2.70
2023-02-26T18:41:10.199Z,3.83
2023-02-26T18:43:14.905Z,3.22
2023-02-26T18:45:16.513Z,3.92
2023-02-26T18:47:19.007Z,3.25
2023-02-26T18:49:23.364Z,3.33
2023-02-26T18:51:43.949Z,3.88
2023-02-26T18:54:04.402Z,4.32
2023-02-26T18:56:06.424Z,3.65
2023-02-26T18:58:07.898Z,3.50
2023-02-26T19:00:10.515Z,5.73
2023-02-26T19:02:14.081Z,2.90
2023-02-26T19:04:15.554Z,5.33
2023-02-26T19:08:21.110Z,2.75
2023-02-26T19:10:25.701Z,2.90
2023-02-26T19:12:27.175Z,3.05
2023-02-26T19:14:28.755Z,3.22
2023-02-26T19:16:39.201Z,3.20
2023-02-26T19:18:40.988Z,2.30
2023-02-26T19:20:42.783Z,3.20
2023-02-26T19:22:45.805Z,2.53
2023-02-26T19:24:50.021Z,2.80
2023-02-26T19:29:00.575Z,3.63
2023-02-26T19:31:02.141Z,3.05
2023-02-26T19:33:04.031Z,3.88
2023-02-26T19:35:06.522Z,3.53
2023-02-26T19:37:27.066Z,3.63
2023-02-26T19:39:47.213Z,3.33
2023-02-26T19:42:07.487Z,3.97
2023-02-26T19:44:27.857Z,4.65
2023-02-26T19:46:32.507Z,6.40
2023-02-26T19:48:33.964Z,6.70
2023-02-26T19:50:35.547Z,6.10
2023-02-26T19:52:42.951Z,5.43
2023-02-26T19:54:50.675Z,4.78
2023-02-26T19:58:56.583Z,4.75
2023-02-26T20:00:58.808Z,6.18
2023-02-26T20:03:00.491Z,4.20
2023-02-26T20:05:03.689Z,4.65
2023-02-26T20:07:06.076Z,5.57
2023-02-26T20:09:18.268Z,4.93
2023-02-26T20:11:21.635Z,3.58
2023-02-26T20:13:24.343Z,3.78
2023-02-26T20:15:25.904Z,4.95
2023-02-26T20:17:34.082Z,4.57
2023-02-26T20:19:41.296Z,3.63
2023-02-26T20:21:43.322Z,4.35
2023-02-26T20:24:05.029Z,3.67
2023-02-26T20:26:10.682Z,3.50
2023-02-26T20:28:14.636Z,3.67
2023-02-26T20:30:22.242Z,3.55
2023-02-26T20:32:29.226Z,3.50
2023-02-26T20:34:35.779Z,3.92
2023-02-26T20:36:40.840Z,3.47
2023-02-26T20:38:47.366Z,4.15
2023-02-26T20:40:54.404Z,4.43
2023-02-26T20:43:04.116Z,4.03
2023-02-26T20:45:13.648Z,3.60
2023-02-26T20:47:20.147Z,4.22
2023-02-26T20:49:30.301Z,3.92
2023-02-26T20:51:43.790Z,3.95
2023-02-26T20:53:47.833Z,3.97
2023-02-26T20:55:54.285Z,5.15
2023-02-26T20:58:01.009Z,4.03
2023-02-26T21:00:13.939Z,3.83
2023-02-26T21:02:21.361Z,4.35
2023-02-26T21:04:41.702Z,4.43
2023-02-26T21:06:43.542Z,4.60
2023-02-26T21:08:47.800Z,3.38
2023-02-26T21:10:52.355Z,4.45
2023-02-26T21:12:53.873Z,3.95
2023-02-26T21:15:14.329Z,4.65
2023-02-26T21:17:19.363Z,4.50
2023-02-26T21:19:39.156Z,3.75
2023-02-26T21:21:40.830Z,3.75
2023-02-26T21:23:48.409Z,4.40
2023-02-26T21:25:50.649Z,4.35
2023-02-26T21:27:58.747Z,4.55
2023-02-26T21:30:04.072Z,3.78
2023-02-26T21:32:24.214Z,3.85
2023-02-26T21:34:34.111Z,4.70
2023-02-26T21:36:35.987Z,4.55
2023-02-26T21:38:43.422Z,4.22
2023-02-26T21:40:45.933Z,4.68
2023-02-26T21:42:53.414Z,5.28
2023-02-26T21:45:01.179Z,8.20
2023-02-26T21:47:05.666Z,11.98
2023-02-26T21:49:26.259Z,7.63
2023-02-26T21:51:28.124Z,6.18
2023-02-26T21:53:30.927Z,6.25
2023-02-26T21:55:51.154Z,5.25
2023-02-26T21:57:55.646Z,4.70
2023-02-26T21:59:57.295Z,4.60
2023-02-26T22:02:01.850Z,5.78
2023-02-26T22:04:09.365Z,4.55
2023-02-26T22:06:29.526Z,4.88
2023-02-26T22:08:34.445Z,4.05
2023-02-26T22:10:41.970Z,3.30
2023-02-26T22:12:43.494Z,4.55
2023-02-26T22:14:45.500Z,3.30
2023-02-26T22:16:49.991Z,3.80
2023-02-26T22:18:51.572Z,4.13
2023-02-26T22:20:53.425Z,4.20
2023-02-26T22:22:57.965Z,4.75
2023-02-26T22:24:59.527Z,4.15
2023-02-26T22:27:04.055Z,5.35
2023-02-26T22:29:05.695Z,5.07
2023-02-26T22:31:10.400Z,4.47
2023-02-26T22:33:12.437Z,5.20
2023-02-26T22:35:14.196Z,5.18
2023-02-26T22:37:21.857Z,5.60
2023-02-26T22:39:29.130Z,4.72
2023-02-26T22:41:30.692Z,4.50
2023-02-26T22:45:55.280Z,4.53
2023-02-26T22:47:57.271Z,4.97
2023-02-26T22:50:02.406Z,5.20
2023-02-26T22:52:05.946Z,5.03
2023-02-26T22:54:12.101Z,4.43
2023-02-26T22:56:13.861Z,5.03
2023-02-26T22:58:15.496Z,5.07
2023-02-26T23:00:20.461Z,4.50
2023-02-26T23:02:25.084Z,5.60
2023-02-26T23:04:29.604Z,5.32
2023-02-26T23:06:31.213Z,4.93
2023-02-26T23:08:35.654Z,5.22
2023-02-26T23:10:37.211Z,5.15
2023-02-26T23:12:38.989Z,6.22
2023-02-26T23:14:43.319Z,4.30
2023-02-26T23:16:49.598Z,4.25
2023-02-26T23:19:05.941Z,3.95
2023-02-26T23:21:25.501Z,3.60
2023-02-26T23:23:43.992Z,3.40
2023-02-26T23:26:02.044Z,3.33
2023-02-26T23:28:16.452Z,2.83
2023-02-26T23:30:49.708Z,3.00
2023-02-26T23:33:06.140Z,3.10
2023-02-26T23:35:19.790Z,2.22
2023-02-26T23:37:31.384Z,3.47
2023-02-26T23:39:49.230Z,2.38
2023-02-26T23:42:01.502Z,2.10
2023-02-26T23:44:11.846Z,2.13
2023-02-26T23:46:26.092Z,2.67
2023-02-26T23:48:39.530Z,2.55
2023-02-26T23:51:07.817Z,2.67
2023-02-26T23:53:10.006Z,3.65
2023-02-26T23:55:29.864Z,2.28
2023-02-26T23:57:33.940Z,2.80
